This is the latest recevied weather packets stored in our database for station/object VK3XEM-13. If no packets are shown the sender has not sent any weather packets the latest 10 day(s).
| Time | Temp. | Humidity | Pressure | Rain* | Wind** | Luminosity | Snow |
|---|---|---|---|---|---|---|---|
| 1778204834 | 13.33° C | 84% | 1021.5 hPa | 0 mm | - | 246 W/m² | - |
| 1778203935 | 13.89° C | 80% | 1021.2 hPa | 0 mm | - | 163 W/m² | - |
| 1778203034 | 12.78° C | 87% | 1021.2 hPa | 0.25 mm | - | 238 W/m² | - |
| 1778202135 | 12.78° C | 90% | 1021.2 hPa | 0.25 mm | - | 78 W/m² | - |
| 1778201235 | 13.33° C | 86% | 1021.2 hPa | 0.25 mm | - | 70 W/m² | - |
| 1778200335 | 12.22° C | 91% | 1020.9 hPa | 0.25 mm | - | 212 W/m² | - |
| 1778199434 | 12.78° C | 88% | 1020.5 hPa | 0 mm | - | 56 W/m² | - |
| 1778198536 | 13.33° C | 86% | 1020.5 hPa | 0 mm | - | 247 W/m² | - |
| 1778197635 | 12.78° C | 90% | 1020.9 hPa | 0 mm | - | 210 W/m² | - |
| 1778195834 | 12.22° C | 92% | 1020.5 hPa | 0.25 mm | - | 61 W/m² | - |
| 1778194034 | 11.67° C | 93% | 1020.2 hPa | 0.25 mm | - | 32 W/m² | - |
| 1778193135 | 11.67° C | 92% | 1019.8 hPa | 0.25 mm | - | 31 W/m² | - |
| 1778192234 | 11.67° C | 93% | 1020.2 hPa | 0.25 mm | - | 62 W/m² | - |
| 1778191334 | 11.67° C | 92% | 1019.8 hPa | 0.25 mm | - | 37 W/m² | - |
| 1778190436 | 11.67° C | 92% | 1019.5 hPa | 0.25 mm | - | 12 W/m² | - |
| 1778189535 | 11.67° C | 91% | 1019.2 hPa | 0.25 mm | - | 14 W/m² | - |
| 1778188634 | 11.67° C | 92% | 1019.2 hPa | 0.25 mm | - | 5 W/m² | - |
| 1778187735 | 11.67° C | 92% | 1018.8 hPa | 0.25 mm | - | 2 W/m² | - |
| 1778185934 | 12.22° C | 90% | 1018.5 hPa | 0 mm | - | 0 W/m² | - |
| 1778185034 | 12.22° C | 90% | 1018.5 hPa | 0 mm | - | 0 W/m² | - |
| 1778184134 | 12.22° C | 89% | 1018.5 hPa | 0 mm | - | 0 W/m² | - |
| 1778183235 | 12.22° C | 88% | 1018.1 hPa | 0 mm | - | 0 W/m² | - |
| 1778182335 | 12.22° C | 88% | 1018.5 hPa | 0 mm | - | 0 W/m² | - |
| 1778181435 | 12.22° C | 89% | 1018.1 hPa | 0 mm | - | 0 W/m² | - |
| 1778180536 | 12.22° C | 88% | 1017.8 hPa | 0 mm | - | 0 W/m² | - |
* Rain latest hour (hover to see other rain measurements)
** Current wind speed in m/s (hover to see current wind gust speed)